sensor_id;sensor_type;location;lat;lon;timestamp;temperature;humidity
77865;DHT22;67061;48.524;9.040;2023-02-26T00:01:32;-0.80;79.00
77865;DHT22;67061;48.524;9.040;2023-02-26T00:04:02;-0.80;80.30
77865;DHT22;67061;48.524;9.040;2023-02-26T00:06:32;-0.80;81.20
77865;DHT22;67061;48.524;9.040;2023-02-26T00:09:00;-0.80;81.60
77865;DHT22;67061;48.524;9.040;2023-02-26T00:11:27;-0.90;82.20
77865;DHT22;67061;48.524;9.040;2023-02-26T00:13:54;-0.90;82.90
77865;DHT22;67061;48.524;9.040;2023-02-26T00:16:26;-0.90;83.40
77865;DHT22;67061;48.524;9.040;2023-02-26T00:18:54;-0.90;82.50
77865;DHT22;67061;48.524;9.040;2023-02-26T00:21:24;-0.90;84.20
77865;DHT22;67061;48.524;9.040;2023-02-26T00:23:52;-0.90;84.40
77865;DHT22;67061;48.524;9.040;2023-02-26T00:26:19;-0.90;84.10
77865;DHT22;67061;48.524;9.040;2023-02-26T00:28:47;-1.00;85.10
77865;DHT22;67061;48.524;9.040;2023-02-26T00:31:15;-1.00;84.20
77865;DHT22;67061;48.524;9.040;2023-02-26T00:33:43;-1.00;84.40
77865;DHT22;67061;48.524;9.040;2023-02-26T00:36:22;-1.00;85.40
77865;DHT22;67061;48.524;9.040;2023-02-26T00:39:00;-1.10;84.70
77865;DHT22;67061;48.524;9.040;2023-02-26T00:41:32;-1.10;85.20
77865;DHT22;67061;48.524;9.040;2023-02-26T00:44:01;-1.20;85.50
77865;DHT22;67061;48.524;9.040;2023-02-26T00:46:37;-1.30;83.70
77865;DHT22;67061;48.524;9.040;2023-02-26T00:49:12;-1.30;84.10
77865;DHT22;67061;48.524;9.040;2023-02-26T00:51:47;-1.30;84.90
77865;DHT22;67061;48.524;9.040;2023-02-26T00:54:18;-1.40;84.90
77865;DHT22;67061;48.524;9.040;2023-02-26T00:56:46;-1.40;84.20
77865;DHT22;67061;48.524;9.040;2023-02-26T00:59:13;-1.50;86.70
77865;DHT22;67061;48.524;9.040;2023-02-26T01:01:40;-1.50;85.40
77865;DHT22;67061;48.524;9.040;2023-02-26T01:04:08;-1.50;86.40
77865;DHT22;67061;48.524;9.040;2023-02-26T01:06:39;-1.50;86.60
77865;DHT22;67061;48.524;9.040;2023-02-26T01:09:15;-1.60;86.70
77865;DHT22;67061;48.524;9.040;2023-02-26T01:11:43;-1.60;86.40
77865;DHT22;67061;48.524;9.040;2023-02-26T01:14:11;-1.60;85.80
77865;DHT22;67061;48.524;9.040;2023-02-26T01:16:43;-1.60;87.10
77865;DHT22;67061;48.524;9.040;2023-02-26T01:19:17;-1.60;86.60
77865;DHT22;67061;48.524;9.040;2023-02-26T01:21:48;-1.60;86.30
77865;DHT22;67061;48.524;9.040;2023-02-26T01:24:22;-1.60;86.90
77865;DHT22;67061;48.524;9.040;2023-02-26T01:26:51;-1.60;86.50
77865;DHT22;67061;48.524;9.040;2023-02-26T01:29:19;-1.70;87.00
77865;DHT22;67061;48.524;9.040;2023-02-26T01:31:49;-1.70;87.30
77865;DHT22;67061;48.524;9.040;2023-02-26T01:34:27;-1.80;86.70
77865;DHT22;67061;48.524;9.040;2023-02-26T01:37:03;-1.80;87.00
77865;DHT22;67061;48.524;9.040;2023-02-26T01:39:40;-1.80;86.30
77865;DHT22;67061;48.524;9.040;2023-02-26T01:42:16;-1.80;86.00
77865;DHT22;67061;48.524;9.040;2023-02-26T01:44:54;-1.80;87.00
77865;DHT22;67061;48.524;9.040;2023-02-26T01:47:29;-1.80;87.70
77865;DHT22;67061;48.524;9.040;2023-02-26T01:50:08;-1.90;87.60
77865;DHT22;67061;48.524;9.040;2023-02-26T01:53:14;-1.90;86.20
77865;DHT22;67061;48.524;9.040;2023-02-26T01:55:47;-1.90;86.20
77865;DHT22;67061;48.524;9.040;2023-02-26T01:58:15;-1.90;86.50
77865;DHT22;67061;48.524;9.040;2023-02-26T02:00:42;-1.90;87.30
77865;DHT22;67061;48.524;9.040;2023-02-26T02:03:09;-1.80;85.70
77865;DHT22;67061;48.524;9.040;2023-02-26T02:05:40;-1.80;86.60
77865;DHT22;67061;48.524;9.040;2023-02-26T02:08:09;-1.70;85.70
77865;DHT22;67061;48.524;9.040;2023-02-26T02:10:40;-1.70;85.30
77865;DHT22;67061;48.524;9.040;2023-02-26T02:13:16;-1.80;85.40
77865;DHT22;67061;48.524;9.040;2023-02-26T02:15:52;-1.80;84.90
77865;DHT22;67061;48.524;9.040;2023-02-26T02:18:27;-1.80;84.70
77865;DHT22;67061;48.524;9.040;2023-02-26T02:21:20;-1.80;85.10
77865;DHT22;67061;48.524;9.040;2023-02-26T02:23:55;-1.80;85.20
77865;DHT22;67061;48.524;9.040;2023-02-26T02:26:56;-1.80;84.50
77865;DHT22;67061;48.524;9.040;2023-02-26T02:29:40;-1.80;85.40
77865;DHT22;67061;48.524;9.040;2023-02-26T02:32:17;-1.80;85.20
77865;DHT22;67061;48.524;9.040;2023-02-26T02:34:48;-1.80;84.70
77865;DHT22;67061;48.524;9.040;2023-02-26T02:37:19;-1.90;83.90
77865;DHT22;67061;48.524;9.040;2023-02-26T02:39:51;-1.90;84.40
77865;DHT22;67061;48.524;9.040;2023-02-26T02:42:24;-2.10;84.20
77865;DHT22;67061;48.524;9.040;2023-02-26T02:44:56;-2.10;85.00
77865;DHT22;67061;48.524;9.040;2023-02-26T02:47:27;-2.10;84.90
77865;DHT22;67061;48.524;9.040;2023-02-26T02:50:01;-2.10;85.10
77865;DHT22;67061;48.524;9.040;2023-02-26T02:52:32;-2.10;86.10
77865;DHT22;67061;48.524;9.040;2023-02-26T02:55:04;-2.10;85.70
77865;DHT22;67061;48.524;9.040;2023-02-26T02:57:37;-2.10;85.70
77865;DHT22;67061;48.524;9.040;2023-02-26T03:00:09;-2.20;85.40
77865;DHT22;67061;48.524;9.040;2023-02-26T03:02:40;-2.30;85.40
77865;DHT22;67061;48.524;9.040;2023-02-26T03:05:08;-2.30;86.10
77865;DHT22;67061;48.524;9.040;2023-02-26T03:07:40;-2.30;86.00
77865;DHT22;67061;48.524;9.040;2023-02-26T03:10:10;-2.40;85.10
77865;DHT22;67061;48.524;9.040;2023-02-26T03:12:37;-2.40;85.80
77865;DHT22;67061;48.524;9.040;2023-02-26T03:15:05;-2.40;86.00
77865;DHT22;67061;48.524;9.040;2023-02-26T03:17:35;-2.40;86.20
77865;DHT22;67061;48.524;9.040;2023-02-26T03:20:15;-2.50;86.40
77865;DHT22;67061;48.524;9.040;2023-02-26T03:22:52;-2.50;86.90
77865;DHT22;67061;48.524;9.040;2023-02-26T03:25:26;-2.50;87.30
77865;DHT22;67061;48.524;9.040;2023-02-26T03:27:59;-2.60;87.00
77865;DHT22;67061;48.524;9.040;2023-02-26T03:30:33;-2.60;87.80
77865;DHT22;67061;48.524;9.040;2023-02-26T03:33:05;-2.60;87.60
77865;DHT22;67061;48.524;9.040;2023-02-26T03:35:43;-2.60;87.90
77865;DHT22;67061;48.524;9.040;2023-02-26T03:38:19;-2.60;87.60
77865;DHT22;67061;48.524;9.040;2023-02-26T03:40:50;-2.60;86.70
77865;DHT22;67061;48.524;9.040;2023-02-26T03:43:23;-2.70;88.00
77865;DHT22;67061;48.524;9.040;2023-02-26T03:45:55;-2.70;87.30
77865;DHT22;67061;48.524;9.040;2023-02-26T03:48:25;-2.70;88.40
77865;DHT22;67061;48.524;9.040;2023-02-26T03:50:57;-2.80;88.20
77865;DHT22;67061;48.524;9.040;2023-02-26T03:53:29;-2.90;87.70
77865;DHT22;67061;48.524;9.040;2023-02-26T03:56:02;-2.90;88.00
77865;DHT22;67061;48.524;9.040;2023-02-26T03:58:31;-2.90;88.20
77865;DHT22;67061;48.524;9.040;2023-02-26T04:01:02;-2.90;88.00
77865;DHT22;67061;48.524;9.040;2023-02-26T04:03:32;-2.90;87.60
77865;DHT22;67061;48.524;9.040;2023-02-26T04:06:02;-3.00;88.20
77865;DHT22;67061;48.524;9.040;2023-02-26T04:08:30;-2.90;88.00
77865;DHT22;67061;48.524;9.040;2023-02-26T04:10:59;-3.00;88.70
77865;DHT22;67061;48.524;9.040;2023-02-26T04:13:31;-3.00;88.60
77865;DHT22;67061;48.524;9.040;2023-02-26T04:15:58;-3.00;88.50
77865;DHT22;67061;48.524;9.040;2023-02-26T04:18:25;-3.00;88.70
77865;DHT22;67061;48.524;9.040;2023-02-26T04:20:52;-2.90;88.70
77865;DHT22;67061;48.524;9.040;2023-02-26T04:23:20;-2.90;87.80
77865;DHT22;67061;48.524;9.040;2023-02-26T04:25:47;-2.90;88.70
77865;DHT22;67061;48.524;9.040;2023-02-26T04:28:14;-3.00;89.30
77865;DHT22;67061;48.524;9.040;2023-02-26T04:30:41;-3.10;88.70
77865;DHT22;67061;48.524;9.040;2023-02-26T04:33:08;-3.10;89.50
77865;DHT22;67061;48.524;9.040;2023-02-26T04:35:35;-3.20;89.90
77865;DHT22;67061;48.524;9.040;2023-02-26T04:38:02;-3.30;90.30
77865;DHT22;67061;48.524;9.040;2023-02-26T04:40:31;-3.30;89.70
77865;DHT22;67061;48.524;9.040;2023-02-26T04:42:58;-3.30;89.40
77865;DHT22;67061;48.524;9.040;2023-02-26T04:45:25;-3.40;89.10
77865;DHT22;67061;48.524;9.040;2023-02-26T04:47:52;-3.40;89.40
77865;DHT22;67061;48.524;9.040;2023-02-26T04:50:19;-3.40;89.60
77865;DHT22;67061;48.524;9.040;2023-02-26T04:52:46;-3.40;90.10
77865;DHT22;67061;48.524;9.040;2023-02-26T04:55:13;-3.40;90.60
77865;DHT22;67061;48.524;9.040;2023-02-26T04:57:41;-3.40;90.30
77865;DHT22;67061;48.524;9.040;2023-02-26T05:00:09;-3.20;90.30
77865;DHT22;67061;48.524;9.040;2023-02-26T05:02:36;-3.30;89.30
77865;DHT22;67061;48.524;9.040;2023-02-26T05:05:04;-3.20;89.60
77865;DHT22;67061;48.524;9.040;2023-02-26T05:07:32;-3.20;90.00
77865;DHT22;67061;48.524;9.040;2023-02-26T05:09:58;-3.20;90.00
77865;DHT22;67061;48.524;9.040;2023-02-26T05:12:25;-3.20;89.90
77865;DHT22;67061;48.524;9.040;2023-02-26T05:14:54;-3.20;89.70
77865;DHT22;67061;48.524;9.040;2023-02-26T05:17:21;-3.20;89.60
77865;DHT22;67061;48.524;9.040;2023-02-26T05:19:48;-3.30;90.80
77865;DHT22;67061;48.524;9.040;2023-02-26T05:22:15;-3.40;90.50
77865;DHT22;67061;48.524;9.040;2023-02-26T05:24:42;-3.40;90.70
77865;DHT22;67061;48.524;9.040;2023-02-26T05:27:09;-3.30;91.00
77865;DHT22;67061;48.524;9.040;2023-02-26T05:29:36;-3.30;90.70
77865;DHT22;67061;48.524;9.040;2023-02-26T05:32:04;-3.30;90.00
77865;DHT22;67061;48.524;9.040;2023-02-26T05:34:31;-3.30;90.30
77865;DHT22;67061;48.524;9.040;2023-02-26T05:36:58;-3.20;90.50
77865;DHT22;67061;48.524;9.040;2023-02-26T05:39:25;-3.20;90.30
77865;DHT22;67061;48.524;9.040;2023-02-26T05:41:52;-3.20;90.60
77865;DHT22;67061;48.524;9.040;2023-02-26T05:44:20;-3.20;90.20
77865;DHT22;67061;48.524;9.040;2023-02-26T05:46:47;-3.20;89.30
77865;DHT22;67061;48.524;9.040;2023-02-26T05:49:15;-3.20;91.10
77865;DHT22;67061;48.524;9.040;2023-02-26T05:51:42;-3.20;90.90
77865;DHT22;67061;48.524;9.040;2023-02-26T05:54:09;-3.20;90.10
77865;DHT22;67061;48.524;9.040;2023-02-26T05:56:36;-3.20;91.10
77865;DHT22;67061;48.524;9.040;2023-02-26T05:59:03;-3.20;91.00
77865;DHT22;67061;48.524;9.040;2023-02-26T06:01:31;-3.20;91.30
77865;DHT22;67061;48.524;9.040;2023-02-26T06:03:58;-3.30;91.80
77865;DHT22;67061;48.524;9.040;2023-02-26T06:06:26;-3.40;91.90
77865;DHT22;67061;48.524;9.040;2023-02-26T06:08:53;-3.40;92.20
77865;DHT22;67061;48.524;9.040;2023-02-26T06:11:20;-3.40;92.70
77865;DHT22;67061;48.524;9.040;2023-02-26T06:13:47;-3.50;92.00
77865;DHT22;67061;48.524;9.040;2023-02-26T06:16:15;-3.50;92.70
77865;DHT22;67061;48.524;9.040;2023-02-26T06:18:41;-3.60;92.80
77865;DHT22;67061;48.524;9.040;2023-02-26T06:21:08;-3.60;93.10
77865;DHT22;67061;48.524;9.040;2023-02-26T06:23:37;-3.50;92.70
77865;DHT22;67061;48.524;9.040;2023-02-26T06:26:04;-3.50;92.30
77865;DHT22;67061;48.524;9.040;2023-02-26T06:28:31;-3.50;92.90
77865;DHT22;67061;48.524;9.040;2023-02-26T06:30:58;-3.50;92.20
77865;DHT22;67061;48.524;9.040;2023-02-26T06:33:25;-3.50;92.70
77865;DHT22;67061;48.524;9.040;2023-02-26T06:35:52;-3.40;93.50
77865;DHT22;67061;48.524;9.040;2023-02-26T06:38:20;-3.40;93.20
77865;DHT22;67061;48.524;9.040;2023-02-26T06:40:48;-3.40;92.60
77865;DHT22;67061;48.524;9.040;2023-02-26T06:43:17;-3.30;93.30
77865;DHT22;67061;48.524;9.040;2023-02-26T06:45:44;-3.30;92.60
77865;DHT22;67061;48.524;9.040;2023-02-26T06:48:11;-3.20;92.20
77865;DHT22;67061;48.524;9.040;2023-02-26T06:50:38;-3.20;92.00
77865;DHT22;67061;48.524;9.040;2023-02-26T06:53:05;-3.20;92.40
77865;DHT22;67061;48.524;9.040;2023-02-26T06:55:32;-3.20;92.30
77865;DHT22;67061;48.524;9.040;2023-02-26T06:58:01;-3.20;92.30
77865;DHT22;67061;48.524;9.040;2023-02-26T07:00:27;-3.30;92.10
77865;DHT22;67061;48.524;9.040;2023-02-26T07:02:54;-3.40;92.70
77865;DHT22;67061;48.524;9.040;2023-02-26T07:05:22;-3.30;93.10
77865;DHT22;67061;48.524;9.040;2023-02-26T07:07:49;-3.30;93.40
77865;DHT22;67061;48.524;9.040;2023-02-26T07:10:17;-3.20;92.80
77865;DHT22;67061;48.524;9.040;2023-02-26T07:12:46;-3.20;93.20
77865;DHT22;67061;48.524;9.040;2023-02-26T07:15:14;-3.20;93.20
77865;DHT22;67061;48.524;9.040;2023-02-26T07:17:41;-3.20;93.00
77865;DHT22;67061;48.524;9.040;2023-02-26T07:20:10;-3.20;93.00
77865;DHT22;67061;48.524;9.040;2023-02-26T07:22:39;-3.10;93.70
77865;DHT22;67061;48.524;9.040;2023-02-26T07:25:07;-3.00;93.70
77865;DHT22;67061;48.524;9.040;2023-02-26T07:27:34;-2.90;92.50
77865;DHT22;67061;48.524;9.040;2023-02-26T07:30:03;-2.90;92.20
77865;DHT22;67061;48.524;9.040;2023-02-26T07:32:32;-2.90;92.50
77865;DHT22;67061;48.524;9.040;2023-02-26T07:34:59;-2.80;93.10
77865;DHT22;67061;48.524;9.040;2023-02-26T07:37:26;-2.90;92.00
77865;DHT22;67061;48.524;9.040;2023-02-26T07:39:53;-2.80;92.60
77865;DHT22;67061;48.524;9.040;2023-02-26T07:42:20;-2.70;92.10
77865;DHT22;67061;48.524;9.040;2023-02-26T07:44:47;-2.80;91.70
77865;DHT22;67061;48.524;9.040;2023-02-26T07:47:14;-2.70;92.30
77865;DHT22;67061;48.524;9.040;2023-02-26T07:49:43;-2.60;92.20
77865;DHT22;67061;48.524;9.040;2023-02-26T07:52:10;-2.60;91.40
77865;DHT22;67061;48.524;9.040;2023-02-26T07:54:37;-2.50;91.40
77865;DHT22;67061;48.524;9.040;2023-02-26T07:57:04;-2.50;91.00
77865;DHT22;67061;48.524;9.040;2023-02-26T07:59:31;-2.50;90.10
77865;DHT22;67061;48.524;9.040;2023-02-26T08:01:58;-2.50;90.90
77865;DHT22;67061;48.524;9.040;2023-02-26T08:04:25;-2.50;90.70
77865;DHT22;67061;48.524;9.040;2023-02-26T08:06:53;-2.40;90.80
77865;DHT22;67061;48.524;9.040;2023-02-26T08:09:21;-2.40;89.80
77865;DHT22;67061;48.524;9.040;2023-02-26T08:11:48;-2.40;89.80
77865;DHT22;67061;48.524;9.040;2023-02-26T08:14:15;-2.30;90.30
77865;DHT22;67061;48.524;9.040;2023-02-26T08:16:42;-2.30;89.60
77865;DHT22;67061;48.524;9.040;2023-02-26T08:19:09;-2.20;89.70
77865;DHT22;67061;48.524;9.040;2023-02-26T08:21:36;-2.10;89.10
77865;DHT22;67061;48.524;9.040;2023-02-26T08:24:05;-2.10;88.40
77865;DHT22;67061;48.524;9.040;2023-02-26T08:26:34;-2.00;88.30
77865;DHT22;67061;48.524;9.040;2023-02-26T08:29:01;-1.90;87.70
77865;DHT22;67061;48.524;9.040;2023-02-26T08:31:28;-1.90;87.70
77865;DHT22;67061;48.524;9.040;2023-02-26T08:33:56;-2.00;88.00
77865;DHT22;67061;48.524;9.040;2023-02-26T08:36:24;-2.10;91.00
77865;DHT22;67061;48.524;9.040;2023-02-26T08:38:51;-2.10;90.00
77865;DHT22;67061;48.524;9.040;2023-02-26T08:41:20;-2.00;91.20
77865;DHT22;67061;48.524;9.040;2023-02-26T08:43:47;-1.90;89.70
77865;DHT22;67061;48.524;9.040;2023-02-26T08:46:14;-2.00;87.40
77865;DHT22;67061;48.524;9.040;2023-02-26T08:48:41;-1.90;88.20
77865;DHT22;67061;48.524;9.040;2023-02-26T08:51:08;-1.80;87.00
77865;DHT22;67061;48.524;9.040;2023-02-26T08:53:35;-1.70;88.10
77865;DHT22;67061;48.524;9.040;2023-02-26T08:56:02;-1.70;87.00
77865;DHT22;67061;48.524;9.040;2023-02-26T08:58:30;-1.70;87.00
77865;DHT22;67061;48.524;9.040;2023-02-26T09:00:57;-1.80;86.40
77865;DHT22;67061;48.524;9.040;2023-02-26T09:03:24;-1.80;86.40
77865;DHT22;67061;48.524;9.040;2023-02-26T09:05:52;-1.70;87.20
77865;DHT22;67061;48.524;9.040;2023-02-26T09:08:19;-1.60;86.70
77865;DHT22;67061;48.524;9.040;2023-02-26T09:10:46;-1.60;85.70
77865;DHT22;67061;48.524;9.040;2023-02-26T09:13:13;-1.60;85.80
77865;DHT22;67061;48.524;9.040;2023-02-26T09:15:42;-1.60;85.50
77865;DHT22;67061;48.524;9.040;2023-02-26T09:18:09;-1.80;84.60
77865;DHT22;67061;48.524;9.040;2023-02-26T09:20:40;-1.80;86.30
77865;DHT22;67061;48.524;9.040;2023-02-26T09:23:08;-1.60;85.60
77865;DHT22;67061;48.524;9.040;2023-02-26T09:25:36;-1.60;84.80
77865;DHT22;67061;48.524;9.040;2023-02-26T09:28:03;-1.60;85.50
77865;DHT22;67061;48.524;9.040;2023-02-26T09:30:30;-1.50;84.70
77865;DHT22;67061;48.524;9.040;2023-02-26T09:32:58;-1.40;84.60
77865;DHT22;67061;48.524;9.040;2023-02-26T09:35:25;-1.40;83.30
77865;DHT22;67061;48.524;9.040;2023-02-26T09:37:52;-1.40;84.20
77865;DHT22;67061;48.524;9.040;2023-02-26T09:40:39;-1.40;83.60
77865;DHT22;67061;48.524;9.040;2023-02-26T09:43:42;-1.50;84.10
77865;DHT22;67061;48.524;9.040;2023-02-26T09:46:23;-1.70;85.40
77865;DHT22;67061;48.524;9.040;2023-02-26T09:49:01;-1.90;85.00
77865;DHT22;67061;48.524;9.040;2023-02-26T09:51:30;-1.90;85.80
77865;DHT22;67061;48.524;9.040;2023-02-26T09:53:59;-1.80;86.50
77865;DHT22;67061;48.524;9.040;2023-02-26T09:56:33;-1.80;86.90
77865;DHT22;67061;48.524;9.040;2023-02-26T09:59:02;-1.70;86.70
77865;DHT22;67061;48.524;9.040;2023-02-26T10:01:33;-1.70;86.60
77865;DHT22;67061;48.524;9.040;2023-02-26T10:04:12;-1.70;87.10
77865;DHT22;67061;48.524;9.040;2023-02-26T10:06:54;-1.70;86.00
77865;DHT22;67061;48.524;9.040;2023-02-26T10:09:40;-1.80;85.90
77865;DHT22;67061;48.524;9.040;2023-02-26T10:12:12;-1.80;86.40
77865;DHT22;67061;48.524;9.040;2023-02-26T10:14:46;-1.80;85.80
77865;DHT22;67061;48.524;9.040;2023-02-26T10:17:19;-1.80;87.40
77865;DHT22;67061;48.524;9.040;2023-02-26T10:19:51;-1.50;87.80
77865;DHT22;67061;48.524;9.040;2023-02-26T10:22:24;-1.50;87.60
77865;DHT22;67061;48.524;9.040;2023-02-26T10:24:56;-1.20;87.40
77865;DHT22;67061;48.524;9.040;2023-02-26T10:27:35;-0.90;85.90
77865;DHT22;67061;48.524;9.040;2023-02-26T10:30:09;-0.70;83.00
77865;DHT22;67061;48.524;9.040;2023-02-26T10:32:44;-0.40;84.60
77865;DHT22;67061;48.524;9.040;2023-02-26T10:35:17;-0.30;84.30
77865;DHT22;67061;48.524;9.040;2023-02-26T10:37:48;-0.50;83.80
77865;DHT22;67061;48.524;9.040;2023-02-26T10:40:21;-0.50;85.00
77865;DHT22;67061;48.524;9.040;2023-02-26T10:42:52;-0.40;85.00
77865;DHT22;67061;48.524;9.040;2023-02-26T10:45:36;-0.40;83.90
77865;DHT22;67061;48.524;9.040;2023-02-26T10:48:13;-0.40;84.20
77865;DHT22;67061;48.524;9.040;2023-02-26T10:50:47;-0.60;84.70
77865;DHT22;67061;48.524;9.040;2023-02-26T10:53:15;-0.40;83.80
77865;DHT22;67061;48.524;9.040;2023-02-26T10:55:45;-0.70;83.30
77865;DHT22;67061;48.524;9.040;2023-02-26T10:58:15;-0.70;83.50
77865;DHT22;67061;48.524;9.040;2023-02-26T11:00:44;-0.60;84.00
77865;DHT22;67061;48.524;9.040;2023-02-26T11:03:15;-0.40;84.10
77865;DHT22;67061;48.524;9.040;2023-02-26T11:05:45;-0.30;82.90
77865;DHT22;67061;48.524;9.040;2023-02-26T11:08:17;-0.40;83.10
77865;DHT22;67061;48.524;9.040;2023-02-26T11:10:49;-0.30;82.20
77865;DHT22;67061;48.524;9.040;2023-02-26T11:13:18;-0.50;82.60
77865;DHT22;67061;48.524;9.040;2023-02-26T11:15:52;-0.50;82.80
77865;DHT22;67061;48.524;9.040;2023-02-26T11:18:23;-0.50;83.50
77865;DHT22;67061;48.524;9.040;2023-02-26T11:20:55;-0.40;82.90
77865;DHT22;67061;48.524;9.040;2023-02-26T11:23:25;-0.30;83.00
77865;DHT22;67061;48.524;9.040;2023-02-26T11:25:58;-0.30;83.30
77865;DHT22;67061;48.524;9.040;2023-02-26T11:28:30;-0.20;81.80
77865;DHT22;67061;48.524;9.040;2023-02-26T11:31:00;-0.50;81.10
77865;DHT22;67061;48.524;9.040;2023-02-26T11:33:33;-0.60;82.40
77865;DHT22;67061;48.524;9.040;2023-02-26T11:36:08;-0.50;82.40
77865;DHT22;67061;48.524;9.040;2023-02-26T11:38:36;-0.30;81.70
77865;DHT22;67061;48.524;9.040;2023-02-26T11:41:09;-0.10;80.20
77865;DHT22;67061;48.524;9.040;2023-02-26T11:43:41;-0.10;80.10
77865;DHT22;67061;48.524;9.040;2023-02-26T11:46:12;-0.20;79.30
77865;DHT22;67061;48.524;9.040;2023-02-26T11:48:59;-0.10;80.30
77865;DHT22;67061;48.524;9.040;2023-02-26T11:51:34;-0.10;80.60
77865;DHT22;67061;48.524;9.040;2023-02-26T11:54:01;0.00;79.70
77865;DHT22;67061;48.524;9.040;2023-02-26T11:56:37;0.00;79.00
77865;DHT22;67061;48.524;9.040;2023-02-26T11:59:06;0.20;78.70
77865;DHT22;67061;48.524;9.040;2023-02-26T12:01:34;0.00;79.20
77865;DHT22;67061;48.524;9.040;2023-02-26T12:04:02;0.00;78.80
77865;DHT22;67061;48.524;9.040;2023-02-26T12:06:29;0.00;78.30
77865;DHT22;67061;48.524;9.040;2023-02-26T12:08:58;0.00;79.10
77865;DHT22;67061;48.524;9.040;2023-02-26T12:11:49;0.00;79.30
77865;DHT22;67061;48.524;9.040;2023-02-26T12:14:34;0.00;79.00
77865;DHT22;67061;48.524;9.040;2023-02-26T12:17:20;0.00;78.20
77865;DHT22;67061;48.524;9.040;2023-02-26T12:19:54;-0.10;79.40
77865;DHT22;67061;48.524;9.040;2023-02-26T12:22:47;0.00;79.20
77865;DHT22;67061;48.524;9.040;2023-02-26T12:38:42;0.10;77.90
77865;DHT22;67061;48.524;9.040;2023-02-26T12:41:54;0.20;77.90
77865;DHT22;67061;48.524;9.040;2023-02-26T12:44:45;0.10;80.30
77865;DHT22;67061;48.524;9.040;2023-02-26T12:47:27;0.20;79.30
77865;DHT22;67061;48.524;9.040;2023-02-26T12:50:15;0.10;78.70
77865;DHT22;67061;48.524;9.040;2023-02-26T12:53:00;0.30;79.80
77865;DHT22;67061;48.524;9.040;2023-02-26T12:55:40;0.30;76.70
77865;DHT22;67061;48.524;9.040;2023-02-26T12:58:40;0.50;76.90
77865;DHT22;67061;48.524;9.040;2023-02-26T13:01:42;0.60;74.50
77865;DHT22;67061;48.524;9.040;2023-02-26T13:07:51;0.50;75.50
77865;DHT22;67061;48.524;9.040;2023-02-26T13:10:27;0.40;74.30
77865;DHT22;67061;48.524;9.040;2023-02-26T13:13:09;0.50;75.70
77865;DHT22;67061;48.524;9.040;2023-02-26T13:15:54;0.50;74.30
77865;DHT22;67061;48.524;9.040;2023-02-26T13:18:29;0.60;74.30
77865;DHT22;67061;48.524;9.040;2023-02-26T13:21:01;0.60;74.70
77865;DHT22;67061;48.524;9.040;2023-02-26T13:23:32;0.80;74.20
77865;DHT22;67061;48.524;9.040;2023-02-26T13:26:05;0.60;73.50
77865;DHT22;67061;48.524;9.040;2023-02-26T13:28:39;0.40;74.20
77865;DHT22;67061;48.524;9.040;2023-02-26T13:31:11;0.40;75.00
77865;DHT22;67061;48.524;9.040;2023-02-26T13:33:39;0.20;75.70
77865;DHT22;67061;48.524;9.040;2023-02-26T13:36:08;0.20;78.80
77865;DHT22;67061;48.524;9.040;2023-02-26T13:38:44;0.10;80.00
77865;DHT22;67061;48.524;9.040;2023-02-26T13:41:16;0.00;80.90
77865;DHT22;67061;48.524;9.040;2023-02-26T13:43:53;0.00;81.00
77865;DHT22;67061;48.524;9.040;2023-02-26T13:46:31;0.20;80.40
77865;DHT22;67061;48.524;9.040;2023-02-26T13:49:05;0.30;80.50
77865;DHT22;67061;48.524;9.040;2023-02-26T13:51:37;0.40;79.20
77865;DHT22;67061;48.524;9.040;2023-02-26T13:54:06;0.70;79.00
77865;DHT22;67061;48.524;9.040;2023-02-26T13:57:05;0.80;78.70
77865;DHT22;67061;48.524;9.040;2023-02-26T13:59:46;1.30;76.90
77865;DHT22;67061;48.524;9.040;2023-02-26T14:02:44;1.10;74.00
77865;DHT22;67061;48.524;9.040;2023-02-26T14:08:45;0.60;76.70
77865;DHT22;67061;48.524;9.040;2023-02-26T14:11:55;0.60;78.40
77865;DHT22;67061;48.524;9.040;2023-02-26T14:14:29;0.70;76.70
77865;DHT22;67061;48.524;9.040;2023-02-26T14:17:25;0.60;76.30
77865;DHT22;67061;48.524;9.040;2023-02-26T14:20:19;0.60;76.10
77865;DHT22;67061;48.524;9.040;2023-02-26T14:22:50;0.60;77.20
77865;DHT22;67061;48.524;9.040;2023-02-26T14:25:28;0.60;77.60
77865;DHT22;67061;48.524;9.040;2023-02-26T14:34:14;0.60;75.00
77865;DHT22;67061;48.524;9.040;2023-02-26T14:36:45;0.60;73.30
77865;DHT22;67061;48.524;9.040;2023-02-26T14:39:24;0.60;73.20
77865;DHT22;67061;48.524;9.040;2023-02-26T14:41:58;0.60;72.90
77865;DHT22;67061;48.524;9.040;2023-02-26T14:44:27;0.60;71.50
77865;DHT22;67061;48.524;9.040;2023-02-26T14:46:56;0.80;70.60
77865;DHT22;67061;48.524;9.040;2023-02-26T14:49:29;0.80;71.50
77865;DHT22;67061;48.524;9.040;2023-02-26T14:52:40;0.70;69.60
77865;DHT22;67061;48.524;9.040;2023-02-26T14:55:26;0.70;70.00
77865;DHT22;67061;48.524;9.040;2023-02-26T14:58:19;0.70;69.50
77865;DHT22;67061;48.524;9.040;2023-02-26T15:00:52;0.80;70.40
77865;DHT22;67061;48.524;9.040;2023-02-26T15:03:48;0.80;70.60
77865;DHT22;67061;48.524;9.040;2023-02-26T15:06:35;0.80;69.50
77865;DHT22;67061;48.524;9.040;2023-02-26T15:09:12;0.80;69.20
77865;DHT22;67061;48.524;9.040;2023-02-26T15:11:55;0.80;67.00
77865;DHT22;67061;48.524;9.040;2023-02-26T15:14:44;0.60;67.20
77865;DHT22;67061;48.524;9.040;2023-02-26T15:17:23;0.50;68.50
77865;DHT22;67061;48.524;9.040;2023-02-26T15:20:03;0.60;67.10
77865;DHT22;67061;48.524;9.040;2023-02-26T15:22:42;0.60;67.40
77865;DHT22;67061;48.524;9.040;2023-02-26T15:25:17;0.50;68.10
77865;DHT22;67061;48.524;9.040;2023-02-26T15:27:47;0.60;68.10
77865;DHT22;67061;48.524;9.040;2023-02-26T15:30:15;0.60;67.90
77865;DHT22;67061;48.524;9.040;2023-02-26T15:32:42;0.80;67.30
77865;DHT22;67061;48.524;9.040;2023-02-26T15:35:14;0.80;67.10
77865;DHT22;67061;48.524;9.040;2023-02-26T15:37:48;0.80;65.30
77865;DHT22;67061;48.524;9.040;2023-02-26T15:40:16;0.80;66.70
77865;DHT22;67061;48.524;9.040;2023-02-26T15:42:45;0.90;66.20
77865;DHT22;67061;48.524;9.040;2023-02-26T15:45:18;0.80;65.50
77865;DHT22;67061;48.524;9.040;2023-02-26T15:47:48;0.80;66.60
77865;DHT22;67061;48.524;9.040;2023-02-26T15:50:17;0.80;66.90
77865;DHT22;67061;48.524;9.040;2023-02-26T15:52:50;0.90;66.20
77865;DHT22;67061;48.524;9.040;2023-02-26T15:55:20;0.80;66.50
77865;DHT22;67061;48.524;9.040;2023-02-26T15:57:48;0.60;67.80
77865;DHT22;67061;48.524;9.040;2023-02-26T16:00:18;0.60;69.70
77865;DHT22;67061;48.524;9.040;2023-02-26T16:02:49;0.60;69.10
77865;DHT22;67061;48.524;9.040;2023-02-26T16:05:18;0.50;68.00
77865;DHT22;67061;48.524;9.040;2023-02-26T16:07:47;0.50;68.40
77865;DHT22;67061;48.524;9.040;2023-02-26T16:10:16;0.40;67.90
77865;DHT22;67061;48.524;9.040;2023-02-26T16:12:45;0.40;68.40
77865;DHT22;67061;48.524;9.040;2023-02-26T16:15:17;0.40;67.80
77865;DHT22;67061;48.524;9.040;2023-02-26T16:17:48;0.40;67.50
77865;DHT22;67061;48.524;9.040;2023-02-26T16:20:20;0.40;67.80
77865;DHT22;67061;48.524;9.040;2023-02-26T16:22:52;0.40;68.50
77865;DHT22;67061;48.524;9.040;2023-02-26T16:25:24;0.40;67.90
77865;DHT22;67061;48.524;9.040;2023-02-26T16:28:05;0.40;67.80
77865;DHT22;67061;48.524;9.040;2023-02-26T16:30:37;0.40;67.70
77865;DHT22;67061;48.524;9.040;2023-02-26T16:33:14;0.40;68.20